Weather observations for the past three days for
Chandler, Chandler Municipal Airport
| Date | Time (cdt) | Wind (mph) | Vis. (mi.) | Weather | Sky Cond. | Temperature (ºF) | Relative Humidity | Wind Chill (°F) | Heat Index (°F) | Pressure | Precipitation (in) | ||||||
|---|---|---|---|---|---|---|---|---|---|---|---|---|---|---|---|---|---|
| Air | Dwpt | 6 hour | altimeter (in) | sea level (mb) | 1 hr | 3 hr | 6 hr | ||||||||||
| Max. | Min. | ||||||||||||||||
| 01 | 12:50 | S 9 | 10.00 | Partly Cloudy | SCT085 | 97.7 | 61.3 | 99.5 | 73.6 | 30% | 99 | 30.03 | 0.0 | ||||
| 01 | 12:30 | SW 10 | 10.00 | Partly Cloudy | SCT085 | 98.2 | 61.9 | 30% | 99 | 30.04 | 0.0 | ||||||
| 01 | 12:10 | S 7 | 10.00 | Fair | CLR | 97.3 | 61.7 | 31% | 98 | 30.04 | 0.0 | ||||||
| 01 | 11:50 | SW 8 | 10.00 | Fair | CLR | 96.6 | 62.4 | 32% | 98 | 30.05 | 0.0 | ||||||
| 01 | 11:35 | S 8 | 7.00 | Fair | CLR | 95.9 | 63 | 34% | 97 | 30.05 | 0.0 | ||||||
| 01 | 11:15 | S 13 G 17 | 10.00 | Fair | CLR | 94.3 | 64.9 | 38% | 97 | 30.05 | 0.0 | ||||||
| 01 | 10:50 | S 8 | 10.00 | Fair | CLR | 92.8 | 65.8 | 41% | 96 | 30.06 | 0.0 | ||||||
| 01 | 10:30 | S 9 | 10.00 | Fair | CLR | 90.5 | 66.7 | 46% | 94 | 30.06 | 0.0 | ||||||
| 01 | 10:10 | S 8 | 10.00 | Fair | CLR | 88.5 | 66.9 | 49% | 92 | 30.06 | 0.0 | ||||||
| 01 | 09:50 | SW 8 | 10.00 | Partly Cloudy | SCT100 | 85.6 | 66.9 | 54% | 88 | 30.06 | 0.0 | ||||||
| 01 | 09:30 | SW 9 | 10.00 | Mostly Cloudy | BKN100 | 83.1 | 66.9 | 58% | 86 | 30.06 | 0.0 | ||||||
| 01 | 09:10 | S 6 | 10.00 | Partly Cloudy | SCT100 | 80.2 | 65.8 | 62% | 82 | 30.06 | 0.0 | ||||||
| 01 | 08:50 | S 7 | 10.00 | Partly Cloudy | SCT100 | 80.2 | 65.7 | 61% | 82 | 30.07 | 0.0 | ||||||
| 01 | 08:30 | S 6 | 5.00 | Fair with Haze | CLR | 80.6 | 66.2 | 62% | 83 | 30.06 | 0.0 | ||||||
| 01 | 08:10 | SE 3 | 5.00 | Fair with Haze | CLR | 77.7 | 65.3 | 66% | 80 | 30.06 | 0.0 | ||||||
| 01 | 07:50 | Calm | 10.00 | Fair | CLR | 76.1 | 65.7 | 70% | 78 | 30.05 | 0.0 | ||||||
| 01 | 07:35 | Calm | 5.00 | Fair with Haze | CLR | 74.5 | 64.2 | 70% | 30.05 | 0.0 | |||||||
| 01 | 07:15 | S 5 | 4.00 | Fair with Haze | CLR | 73.8 | 63.9 | 71% | 30.04 | 0.0 | |||||||
| 01 | 06:55 | SE 3 | 10.00 | Fair | CLR | 74.1 | 63.9 | 80.4 | 73.8 | 70% | 30.04 | 0.0 | |||||
| 01 | 06:30 | S 3 | 7.00 | Fair with Haze | CLR | 74.8 | 63.5 | 68% | 30.03 | 0.0 | |||||||
| 01 | 06:10 | S 8 | 10.00 | Fair | CLR | 75.4 | 63.5 | 67% | 77 | 30.03 | 0.0 | ||||||
| 01 | 05:50 | S 8 | 10.00 | Fair | CLR | 75.7 | 63.3 | 65% | 78 | 30.02 | 0.0 | ||||||
| 01 | 05:30 | S 8 | 10.00 | Fair | CLR | 76.3 | 63.1 | 64% | 78 | 30.03 | 0.0 | ||||||
| 01 | 05:10 | S 7 | 10.00 | Fair | CLR | 76.5 | 62.8 | 63% | 78 | 30.02 | 0.0 | ||||||
| 01 | 04:50 | S 7 | 10.00 | Fair | CLR | 76.8 | 62.8 | 62% | 79 | 30.02 | 0.0 | ||||||
| 01 | 04:30 | S 8 | 10.00 | Fair | CLR | 78.8 | 62.6 | 58% | 80 | 30.02 | 0.0 | ||||||
| 01 | 04:10 | S 8 | 10.00 | Fair | CLR | 79 | 62.2 | 57% | 80 | 30.02 | 0.0 | ||||||
| 01 | 03:50 | S 9 | 10.00 | Fair | CLR | 80.1 | 61.7 | 54% | 81 | 30.01 | 0.0 | ||||||
| 01 | 03:30 | S 8 | 10.00 | Fair | CLR | 79.9 | 61.3 | 53% | 81 | 30.01 | 0.0 | ||||||
| 01 | 03:10 | S 7 | 10.00 | Fair | CLR | 79.5 | 60.3 | 52% | 81 | 30.01 | 0.0 | ||||||
| 01 | 02:50 | S 7 | 10.00 | Fair | CLR | 78.8 | 59.4 | 51% | 80 | 30.01 | 0.0 | ||||||
| 01 | 02:30 | S 7 | 10.00 | Fair | CLR | 77.9 | 59 | 52% | 79 | 30.01 | 0.0 | ||||||
| 01 | 02:10 | S 7 | 10.00 | Fair | CLR | 77 | 59.2 | 54% | 79 | 30 | 0.0 | ||||||
| 01 | 01:50 | S 6 | 10.00 | Fair | CLR | 77.5 | 59.2 | 53% | 79 | 30.01 | 0.0 | ||||||
| 01 | 01:30 | S 7 | 10.00 | Fair | CLR | 77.7 | 59.2 | 53% | 79 | 30.01 | 0.0 | ||||||
| 01 | 01:10 | S 7 | 10.00 | Fair | CLR | 77.2 | 59.2 | 54% | 79 | 30.01 | 0.0 | ||||||
| 01 | 00:50 | S 6 | 10.00 | Fair | CLR | 77.5 | 59 | 96.1 | 77.4 | 53% | 79 | 30.01 | 0.0 | ||||
| 01 | 00:35 | S 7 | 10.00 | Fair | CLR | 78.1 | 59 | 52% | 79 | 30.01 | 0.0 | ||||||
| 01 | 00:15 | S 6 | 10.00 | Fair | CLR | 78.4 | 58.8 | 51% | 80 | 30 | 0.0 | ||||||
| 31 | 23:50 | S 7 | 10.00 | Fair | CLR | 79.2 | 58.6 | 50% | 80 | 29.99 | 0.0 | ||||||
| 31 | 23:30 | S 7 | 10.00 | Fair | CLR | 79.9 | 58.6 | 48% | 81 | 30 | 0.0 | ||||||
| 31 | 23:10 | S 7 | 10.00 | Fair | CLR | 80.2 | 58.5 | 47% | 81 | 30 | 0.0 | ||||||
| 31 | 22:50 | S 7 | 10.00 | Fair | CLR | 81.1 | 58.3 | 46% | 81 | 29.99 | 0.0 | ||||||
| 31 | 22:30 | S 6 | 10.00 | Fair | CLR | 81.5 | 58.3 | 45% | 82 | 29.99 | 0.0 | ||||||
| 31 | 22:10 | S 7 | 10.00 | Fair | CLR | 82.6 | 58.3 | 44% | 82 | 29.99 | 0.0 | ||||||
| 31 | 21:50 | S 7 | 10.00 | Fair | CLR | 84.6 | 57.9 | 40% | 84 | 29.99 | 0.0 | ||||||
| 31 | 21:30 | S 7 | 10.00 | Fair | CLR | 85.6 | 57.7 | 39% | 85 | 29.98 | 0.0 | ||||||
| 31 | 21:10 | S 7 | 7.00 | Fair | CLR | 86.5 | 57.6 | 37% | 86 | 29.97 | 0.0 | ||||||
| 31 | 20:50 | S 7 | 10.00 | Fair | CLR | 87.1 | 58.3 | 38% | 86 | 29.96 | 0.0 | ||||||
| 31 | 20:30 | S 7 | 10.00 | Fair | CLR | 88.2 | 58.8 | 37% | 87 | 29.96 | 0.0 | ||||||
| 31 | 20:15 | SE 6 | 10.00 | Fair | CLR | 88.3 | 59.7 | 38% | 88 | 29.95 | 0.0 | ||||||
| 31 | 19:55 | S 5 | 10.00 | Fair | CLR | 89.4 | 59.7 | 37% | 89 | 29.95 | 0.0 | ||||||
| 31 | 19:30 | S 6 | 10.00 | Fair | CLR | 92.3 | 59.4 | 33% | 92 | 29.95 | 0.0 | ||||||
| 31 | 19:10 | S 8 | 5.00 | Fair with Haze | CLR | 95.2 | 59.2 | 30% | 95 | 29.94 | 0.0 | ||||||
| 31 | 18:30 | S 12 | 10.00 | Fair | CLR | 97.3 | 59 | 28% | 97 | 29.94 | 0.0 | ||||||
| 31 | 18:10 | S 14 | 10.00 | Fair | CLR | 98.1 | 58.6 | 27% | 98 | 29.94 | 0.0 | ||||||
| 31 | 17:50 | S 10 | 10.00 | Fair | CLR | 98.4 | 58.3 | 26% | 98 | 29.94 | 0.0 | ||||||
| 31 | 17:30 | S 14 | 10.00 | Partly Cloudy | SCT095 | 99.5 | 58.8 | 26% | 99 | 29.95 | 0.0 | ||||||
| 31 | 17:10 | S 15 | 10.00 | Fair | CLR | 99.9 | 59.7 | 27% | 100 | 29.95 | 0.0 | ||||||
| 31 | 16:50 | S 17 | 10.00 | Partly Cloudy | SCT090 | 99.9 | 60.1 | 27% | 100 | 29.95 | 0.0 | ||||||
| 31 | 16:30 | S 10 | 10.00 | Mostly Cloudy | BKN090 | 99.1 | 61 | 28% | 100 | 29.95 | 0.0 | ||||||
| 31 | 16:10 | S 12 G 18 | 10.00 | Mostly Cloudy | BKN090 | 98.6 | 60.4 | 28% | 99 | 29.96 | 0.0 | ||||||
| 31 | 15:55 | S 12 | 10.00 | Mostly Cloudy | BKN090 | 100.8 | 60.4 | 26% | 102 | 29.96 | 0.0 | ||||||
| 31 | 15:35 | S 12 G 20 | 10.00 | Partly Cloudy | SCT090 | 101.3 | 59.5 | 25% | 102 | 29.97 | 0.0 | ||||||
| 31 | 15:10 | S 14 G 20 | 10.00 | Fair | CLR | 100.4 | 58.8 | 25% | 100 | 29.98 | 0.0 | ||||||
| 31 | 14:50 | SW 10 | 10.00 | Fair | CLR | 100.6 | 59.4 | 26% | 101 | 29.98 | 0.0 | ||||||
| 31 | 14:30 | S 8 G 21 | 10.00 | Fair | CLR | 99.9 | 58.8 | 26% | 100 | 29.99 | 0.0 | ||||||
| 31 | 14:10 | S 13 G 20 | 10.00 | Fair | CLR | 99.3 | 58.3 | 26% | 99 | 29.99 | 0.0 | ||||||
| 31 | 13:50 | S 10 | 10.00 | Partly Cloudy | SCT090 | 98.4 | 58.3 | 26% | 98 | 30 | 0.0 | ||||||
| 31 | 13:30 | SW 9 | 10.00 | Partly Cloudy | SCT090 | 98.4 | 57 | 25% | 97 | 30.01 | 0.0 | ||||||
| 31 | 13:10 | S 7 | 10.00 | Fair | CLR | 98.6 | 60.6 | 29% | 99 | 30.01 | 0.0 | ||||||
| 31 | 12:50 | S 10 G 26 | 10.00 | Fair | CLR | 98.2 | 61.7 | 98.8 | 72.1 | 30% | 99 | 30.02 | 0.0 | ||||
| 31 | 12:30 | S 13 | 10.00 | Fair | CLR | 97.9 | 63.3 | 32% | 100 | 30.02 | 0.0 | ||||||
| 31 | 12:10 | S 14 | 10.00 | Fair | CLR | 97 | 63.3 | 33% | 99 | 30.03 | 0.0 | ||||||
| 31 | 11:50 | S 10 G 17 | 10.00 | Fair | CLR | 96.4 | 63.9 | 34% | 99 | 30.04 | 0.0 | ||||||
| 31 | 11:35 | S 13 | 10.00 | Fair | CLR | 95.7 | 64 | 35% | 98 | 30.04 | 0.0 | ||||||
| 31 | 11:15 | S 12 | 10.00 | Fair | CLR | 94.5 | 65.7 | 39% | 97 | 30.04 | 0.0 | ||||||
| 31 | 10:50 | S 13 | 10.00 | Fair | CLR | 93.6 | 66.2 | 41% | 97 | 30.04 | 0.0 | ||||||
| 31 | 10:30 | S 10 | 10.00 | Fair | CLR | 91.9 | 66.7 | 44% | 95 | 30.04 | 0.0 | ||||||
| 31 | 10:10 | SW 12 | 10.00 | Fair | CLR | 89.6 | 66.2 | 46% | 92 | 30.04 | 0.0 | ||||||
| 31 | 09:50 | SW 12 | 10.00 | Fair | CLR | 88 | 66.4 | 49% | 91 | 30.04 | 0.0 | ||||||
| 31 | 09:30 | S 6 | 10.00 | Fair | CLR | 84.9 | 65.7 | 53% | 87 | 30.04 | 0.0 | ||||||
| 31 | 09:10 | S 8 | 10.00 | Fair | CLR | 82.6 | 64.6 | 55% | 84 | 30.05 | 0.0 | ||||||
| 31 | 08:50 | S 8 | 7.00 | Fair | CLR | 81 | 64 | 57% | 83 | 30.05 | 0.0 | ||||||
| 31 | 08:30 | SE 6 | 4.00 | Fair with Haze | CLR | 78.8 | 64.4 | 61% | 81 | 30.04 | 0.0 | ||||||
| 31 | 08:10 | SE 5 | 10.00 | Fair | CLR | 76.3 | 64.4 | 67% | 78 | 30.04 | 0.0 | ||||||
| 31 | 07:50 | SE 5 | 5.00 | Fair with Haze | CLR | 74.7 | 63.9 | 69% | 30.03 | 0.0 | |||||||
| 31 | 07:30 | SE 5 | 10.00 | Fair | CLR | 73 | 63.3 | 72% | 30.02 | 0.0 | |||||||
| 31 | 07:15 | SE 5 | 5.00 | Fair with Haze | CLR | 72.7 | 62.8 | 71% | 30.02 | 0.0 | |||||||
| 31 | 06:55 | SE 5 | 5.00 | Fair with Haze | CLR | 72.3 | 62.6 | 79.5 | 72.3 | 72% | 30.01 | 0.0 | |||||
| 31 | 06:30 | SE 5 | 10.00 | Fair | CLR | 72.9 | 62.2 | 69% | 30 | 0.0 | |||||||
| 31 | 06:10 | SE 6 | 10.00 | Fair | CLR | 73.4 | 62.1 | 68% | 29.99 | 0.0 | |||||||
| 31 | 05:50 | SE 6 | 10.00 | Fair | CLR | 72.9 | 61.9 | 69% | 29.99 | 0.0 | |||||||
| 31 | 05:30 | SE 5 | 10.00 | Fair | CLR | 73.8 | 61.7 | 66% | 29.98 | 0.0 | |||||||
| 31 | 05:10 | SE 5 | 10.00 | Fair | CLR | 74.7 | 61.5 | 64% | 29.98 | 0.0 | |||||||
| 31 | 04:50 | SE 6 | 10.00 | Fair | CLR | 75.2 | 61.2 | 62% | 77 | 29.98 | 0.0 | ||||||
| 31 | 04:30 | SE 6 | 10.00 | Fair | CLR | 76.3 | 61 | 59% | 78 | 29.97 | 0.0 | ||||||
| 31 | 04:10 | SE 7 | 10.00 | Fair | CLR | 77.2 | 60.6 | 57% | 79 | 29.97 | 0.0 | ||||||
| 31 | 03:50 | S 7 | 10.00 | Fair | CLR | 77.9 | 60.3 | 55% | 79 | 29.97 | 0.0 | ||||||
| 31 | 03:30 | S 8 | 10.00 | Fair | CLR | 79 | 59.9 | 52% | 80 | 29.96 | 0.0 | ||||||
| 31 | 03:10 | S 8 | 10.00 | Fair | CLR | 78.8 | 59 | 51% | 80 | 29.96 | 0.0 | ||||||
| 31 | 02:50 | S 7 | 10.00 | Fair | CLR | 77.7 | 60.4 | 55% | 79 | 29.96 | 0.0 | ||||||
| 31 | 02:30 | S 7 | 10.00 | Fair | CLR | 78.1 | 60.6 | 55% | 80 | 29.96 | 0.0 | ||||||
| 31 | 02:10 | S 7 | 10.00 | Fair | CLR | 77.5 | 60.6 | 56% | 79 | 29.96 | 0.0 | ||||||
| 31 | 01:50 | S 7 | 10.00 | Fair | CLR | 76.6 | 61 | 59% | 78 | 29.96 | 0.0 | ||||||
| 31 | 01:30 | S 6 | 10.00 | Fair | CLR | 77.7 | 61 | 56% | 79 | 29.96 | 0.0 | ||||||
| 31 | 01:10 | S 6 | 10.00 | Fair | CLR | 79 | 61.3 | 55% | 80 | 29.96 | 0.0 | ||||||
| 31 | 00:50 | S 6 | 10.00 | Fair | CLR | 79 | 61.3 | 98.1 | 78.8 | 55% | 80 | 29.96 | 0.0 | ||||
| 31 | 00:35 | S 5 | 10.00 | Fair | CLR | 81 | 61.5 | 52% | 82 | 29.95 | 0.0 | ||||||
| 31 | 00:15 | S 6 | 10.00 | Fair | CLR | 80.6 | 61.5 | 52% | 82 | 29.95 | 0.0 | ||||||
| 30 | 23:55 | S 6 | 10.00 | Fair | CLR | 81.7 | 61.3 | 50% | 82 | 29.95 | 0.0 | ||||||
| 30 | 23:30 | S 7 | 10.00 | Fair | CLR | 82 | 61.2 | 49% | 83 | 29.95 | 0.0 | ||||||
| 30 | 23:10 | S 7 | 10.00 | Fair | CLR | 83.3 | 61.2 | 47% | 84 | 29.95 | 0.0 | ||||||
| 30 | 22:50 | S 9 | 10.00 | Fair | CLR | 84.7 | 60.8 | 45% | 85 | 29.94 | 0.0 | ||||||
| 30 | 22:30 | S 8 | 10.00 | Fair | CLR | 85.8 | 60.8 | 43% | 86 | 29.94 | 0.0 | ||||||
| 30 | 22:10 | S 8 | 10.00 | Fair | CLR | 86.4 | 60.8 | 42% | 86 | 29.94 | 0.0 | ||||||
| 30 | 21:50 | S 8 | 10.00 | Fair | CLR | 86.9 | 61 | 42% | 87 | 29.93 | 0.0 | ||||||
| 30 | 21:30 | S 8 | 10.00 | Fair | CLR | 87.1 | 61 | 42% | 87 | 29.92 | 0.0 | ||||||
| 30 | 21:10 | S 8 | 10.00 | Fair | CLR | 87.4 | 61 | 41% | 87 | 29.92 | 0.0 | ||||||
| 30 | 20:50 | S 7 | 10.00 | Fair | CLR | 89.2 | 60.6 | 38% | 89 | 29.91 | 0.0 | ||||||
| 30 | 20:30 | S 8 | 10.00 | Fair | CLR | 90.3 | 60.6 | 37% | 90 | 29.9 | 0.0 | ||||||
| 30 | 20:15 | S 7 | 10.00 | Fair | CLR | 91.4 | 60.4 | 36% | 91 | 29.9 | 0.0 | ||||||
| 30 | 19:55 | S 7 | 10.00 | Fair | CLR | 91.9 | 61 | 36% | 92 | 29.89 | 0.0 | ||||||
| 30 | 19:30 | S 8 | 10.00 | Fair | CLR | 94.6 | 61 | 33% | 95 | 29.88 | 0.0 | ||||||
| 30 | 19:10 | S 8 | 10.00 | Fair | CLR | 96.6 | 61.2 | 31% | 97 | 29.89 | 0.0 | ||||||
| 30 | 18:50 | S 8 | 10.00 | Fair | CLR | 98.1 | 60.4 | 103.8 | 98.1 | 29% | 98 | 29.89 | 0.0 | ||||
| 30 | 18:30 | SW 10 | 10.00 | Fair | CLR | 98.8 | 59.5 | 27% | 99 | 29.89 | 0.0 | ||||||
| 30 | 18:10 | S 9 | 7.00 | Fair | CLR | 99.9 | 59.5 | 26% | 100 | 29.89 | 0.0 | ||||||
| 30 | 17:50 | S 12 | 10.00 | Fair | CLR | 100.4 | 58.3 | 25% | 100 | 29.9 | 0.0 | ||||||
| 30 | 17:30 | S 10 | 10.00 | Fair | CLR | 100.6 | 58.6 | 25% | 100 | 29.89 | 0.0 | ||||||
| 30 | 17:10 | S 12 | 10.00 | Fair | CLR | 101.1 | 59.2 | 25% | 101 | 29.9 | 0.0 | ||||||
| 30 | 16:50 | S 9 G 18 | 10.00 | Fair | CLR | 101.5 | 59 | 25% | 102 | 29.9 | 0.0 | ||||||
| 30 | 16:30 | S 8 G 18 | 10.00 | Fair | CLR | 101.3 | 58.8 | 25% | 101 | 29.9 | 0.0 | ||||||
| 30 | 16:10 | S 12 | 10.00 | Fair | CLR | 100.8 | 59 | 25% | 101 | 29.91 | 0.0 | ||||||
| 30 | 15:55 | S 12 G 20 | 10.00 | Fair | CLR | 100.8 | 58.1 | 24% | 100 | 29.91 | 0.0 | ||||||
| 30 | 15:35 | S 13 | 10.00 | Fair | CLR | 101.3 | 59 | 25% | 101 | 29.92 | 0.0 | ||||||
| 30 | 15:10 | SE 8 G 18 | 10.00 | Fair | CLR | 101.8 | 59 | 24% | 102 | 29.93 | 0.0 | ||||||
| 30 | 14:50 | S 17 G 23 | 10.00 | Fair | CLR | 101.5 | 59.7 | 25% | 102 | 29.93 | 0.0 | ||||||
| 30 | 14:30 | S 14 G 22 | 10.00 | Fair | CLR | 101.3 | 59.2 | 25% | 102 | 29.94 | 0.0 | ||||||
| 30 | 14:10 | S 15 | 10.00 | Fair | CLR | 100.9 | 59.7 | 26% | 101 | 29.95 | 0.0 | ||||||
| 30 | 13:50 | S 14 G 24 | 10.00 | Fair | CLR | 100 | 60.8 | 27% | 101 | 29.96 | 0.0 | ||||||
| 30 | 13:30 | S 16 G 23 | 10.00 | Fair | CLR | 99.5 | 62.4 | 30% | 101 | 29.96 | 0.0 | ||||||
| 30 | 13:10 | S 17 G 22 | 10.00 | Fair | CLR | 99.1 | 62.6 | 30% | 101 | 29.97 | 0.0 | ||||||
| 30 | 12:50 | S 13 | 10.00 | Fair | CLR | 99 | 63.7 | 99.5 | 77.7 | 31% | 101 | 29.97 | 0.0 | ||||
| 30 | 12:30 | S 15 G 22 | 10.00 | Fair | CLR | 98.2 | 63.5 | 32% | 100 | 29.98 | 0.0 | ||||||
| 30 | 12:10 | S 15 G 21 | 10.00 | Fair | CLR | 98.2 | 63.9 | 32% | 101 | 29.99 | 0.0 | ||||||
| 30 | 11:50 | S 20 G 24 | 10.00 | Fair | CLR | 96.6 | 64.4 | 35% | 99 | 29.99 | 0.0 | ||||||
| 30 | 11:35 | S 17 | 10.00 | Fair | CLR | 96.1 | 64.9 | 36% | 99 | 30 | 0.0 | ||||||
| 30 | 11:15 | S 16 G 21 | 10.00 | Fair | CLR | 94.6 | 66 | 39% | 98 | 30 | 0.0 | ||||||
| 30 | 10:50 | S 14 | 10.00 | Fair | CLR | 91.9 | 65.8 | 42% | 95 | 30 | 0.0 | ||||||
| 30 | 10:30 | S 14 | 10.00 | Fair | CLR | 90.5 | 65.7 | 44% | 93 | 30 | 0.0 | ||||||
| 30 | 10:10 | SW 14 | 10.00 | Fair | CLR | 89.6 | 65.8 | 46% | 92 | 30 | 0.0 | ||||||
| 30 | 09:50 | S 13 | 10.00 | Fair | CLR | 87.3 | 65.3 | 48% | 89 | 30.01 | 0.0 | ||||||
| 30 | 09:30 | S 13 G 20 | 10.00 | Fair | CLR | 84.9 | 64.6 | 51% | 86 | 30.01 | 0.0 | ||||||
| 30 | 09:10 | S 12 G 18 | 10.00 | Fair | CLR | 83.5 | 64.4 | 53% | 85 | 30.01 | 0.0 | ||||||
| 30 | 08:50 | S 12 | 10.00 | Fair | CLR | 81.9 | 64.2 | 55% | 83 | 30.01 | 0.0 | ||||||
| 30 | 08:30 | S 9 | 10.00 | Fair | CLR | 80.6 | 63.9 | 57% | 82 | 30.01 | 0.0 | ||||||
| 30 | 08:10 | S 10 | 10.00 | Fair | CLR | 79.5 | 63.3 | 58% | 81 | 30.01 | 0.0 | ||||||
| 30 | 07:50 | S 9 | 10.00 | Fair | CLR | 78.8 | 62.6 | 58% | 80 | 30.01 | 0.0 | ||||||
| 30 | 07:30 | S 8 | 10.00 | Fair | CLR | 77.9 | 62.4 | 59% | 80 | 30 | 0.0 | ||||||
| 30 | 07:15 | S 10 | 10.00 | Fair | CLR | 77.7 | 61.9 | 58% | 79 | 30 | 0.0 | ||||||
| 30 | 06:55 | S 12 | 10.00 | Fair | CLR | 78.1 | 61.7 | 83.1 | 78.1 | 57% | 80 | 29.99 | 0.0 | ||||
| 30 | 06:30 | S 9 | 10.00 | Fair | CLR | 78.4 | 61.7 | 57% | 80 | 29.99 | 0.0 | ||||||
| 30 | 06:10 | S 9 | 10.00 | Fair | CLR | 78.8 | 61.7 | 56% | 80 | 29.99 | 0.0 | ||||||
| 30 | 05:50 | S 9 | 10.00 | Fair | CLR | 78.8 | 61.5 | 56% | 80 | 29.99 | 0.0 | ||||||
| 30 | 05:30 | S 10 | 10.00 | Fair | CLR | 79 | 61.5 | 55% | 80 | 29.98 | 0.0 | ||||||
| 30 | 05:10 | S 12 | 10.00 | Fair | CLR | 79 | 61.3 | 55% | 80 | 29.98 | 0.0 | ||||||
| 30 | 04:30 | S 10 | 10.00 | Fair | CLR | 79.9 | 61.3 | 53% | 81 | 29.98 | 0.0 | ||||||
| 30 | 04:10 | S 12 | 10.00 | Fair | CLR | 80.4 | 61.2 | 52% | 81 | 29.97 | 0.0 | ||||||
| 30 | 03:50 | S 12 | 10.00 | Fair | CLR | 81 | 61.2 | 51% | 82 | 29.97 | 0.0 | ||||||
| 30 | 03:30 | S 10 G 16 | 10.00 | Fair | CLR | 81.3 | 61.3 | 51% | 82 | 29.97 | 0.0 | ||||||
| 30 | 03:10 | S 13 | 10.00 | Fair | CLR | 81.5 | 61.3 | 50% | 82 | 29.96 | 0.0 | ||||||
| 30 | 02:50 | S 12 G 16 | 10.00 | Fair | CLR | 81.9 | 61.3 | 50% | 83 | 29.96 | 0.0 | ||||||
| 30 | 02:30 | S 14 | 10.00 | Fair | CLR | 82.6 | 61.2 | 48% | 83 | 29.97 | 0.0 | ||||||
| 30 | 02:10 | S 13 | 10.00 | Fair | CLR | 82.8 | 60.8 | 48% | 83 | 29.97 | 0.0 | ||||||
| 30 | 01:50 | S 13 | 10.00 | Fair | CLR | 82.9 | 60.4 | 47% | 83 | 29.97 | 0.0 | ||||||
| 30 | 01:30 | S 12 | 10.00 | Fair | CLR | 82.9 | 59.9 | 46% | 83 | 29.97 | 0.0 | ||||||
| 30 | 01:10 | S 10 | 10.00 | Fair | CLR | 82.9 | 59.7 | 45% | 83 | 29.97 | 0.0 | ||||||
| 30 | 00:50 | S 10 | 10.00 | Fair | CLR | 83.3 | 59.5 | 96.3 | 82.8 | 45% | 83 | 29.97 | 0.0 | ||||
| 30 | 00:35 | S 10 | 10.00 | Fair | CLR | 83.3 | 59.9 | 45% | 83 | 29.97 | 0.0 | ||||||
| 30 | 00:15 | S 10 | 10.00 | Fair | CLR | 83.3 | 60.1 | 46% | 83 | 29.97 | 0.0 | ||||||
| 29 | 23:50 | S 8 | 10.00 | Fair | CLR | 83.5 | 60.4 | 46% | 84 | 29.97 | 0.0 | ||||||
| 29 | 23:30 | S 10 | 10.00 | Fair | CLR | 83.7 | 60.6 | 46% | 84 | 29.97 | 0.0 | ||||||
| 29 | 23:10 | S 9 | 10.00 | Fair | CLR | 83.8 | 60.8 | 46% | 84 | 29.97 | 0.0 | ||||||
| 29 | 22:50 | S 9 | 10.00 | Fair | CLR | 83.8 | 60.8 | 46% | 84 | 29.97 | 0.0 | ||||||
| 29 | 22:30 | S 7 | 7.00 | Fair | CLR | 83.5 | 61.2 | 47% | 84 | 29.97 | 0.0 | ||||||
| 29 | 22:10 | SE 7 | 7.00 | Fair | CLR | 83.1 | 61.3 | 48% | 84 | 29.97 | 0.0 | ||||||
| 29 | 21:50 | SE 5 | 10.00 | Fair | CLR | 83.1 | 62.2 | 49% | 84 | 29.96 | 0.0 | ||||||
| 29 | 21:30 | SE 6 | 10.00 | Fair | CLR | 84.7 | 62.4 | 47% | 85 | 29.95 | 0.0 | ||||||
| 29 | 21:10 | SE 7 | 10.00 | Fair | CLR | 85.8 | 63 | 46% | 87 | 29.94 | 0.0 | ||||||
| 29 | 20:50 | SE 6 | 10.00 | Fair | CLR | 86.5 | 63.1 | 46% | 87 | 29.93 | 0.0 | ||||||
| 29 | 20:30 | SE 7 | 10.00 | Fair | CLR | 87.6 | 63 | 44% | 88 | 29.93 | 0.0 | ||||||
| 29 | 20:15 | SE 6 | 10.00 | Fair | CLR | 88.5 | 62.8 | 42% | 89 | 29.92 | 0.0 | ||||||
| 29 | 19:30 | SE 6 | 10.00 | Fair | CLR | 93 | 62.2 | 36% | 94 | 29.92 | 0.0 | ||||||
| 29 | 19:10 | SE 6 | 10.00 | Fair | CLR | 95.2 | 61.7 | 33% | 96 | 29.92 | 0.0 | ||||||
| 29 | 18:50 | E 9 | 10.00 | Fair | CLR | 96.4 | 61.3 | 101.3 | 95.7 | 31% | 97 | 29.93 | 0.0 | ||||
| 29 | 18:30 | SE 9 | 10.00 | Fair | CLR | 98.6 | 59 | 27% | 98 | 29.93 | 0.0 | ||||||
| 29 | 18:10 | S 9 | 10.00 | Fair | CLR | 99.1 | 60.6 | 28% | 100 | 29.93 | 0.0 | ||||||
| 29 | 17:50 | SE 12 | 10.00 | Fair | CLR | 98.6 | 60.8 | 29% | 99 | 29.93 | 0.0 | ||||||
| 29 | 17:30 | SE 8 | 10.00 | Fair | CLR | 99.3 | 61.9 | 29% | 101 | 29.93 | 0.0 | ||||||
| 29 | 17:10 | S 12 | 10.00 | Fair | CLR | 98.8 | 62.4 | 30% | 100 | 29.93 | 0.0 | ||||||
| 29 | 16:50 | S 9 | 10.00 | Fair | CLR | 98.4 | 63.3 | 32% | 100 | 29.94 | 0.0 | ||||||
| 29 | 16:30 | S 9 | 10.00 | Fair | CLR | 98.2 | 62.6 | 31% | 100 | 29.95 | 0.0 | ||||||
| 29 | 16:10 | S 10 | 10.00 | Fair | CLR | 98.4 | 62.1 | 30% | 100 | 29.96 | 0.0 | ||||||
| 29 | 15:55 | SW 7 | 10.00 | Fair | CLR | 98.4 | 62.2 | 30% | 100 | 29.96 | 0.0 | ||||||
| 29 | 15:35 | S 10 G 17 | 10.00 | Fair | CLR | 99.5 | 62.2 | 29% | 101 | 29.97 | 0.0 | ||||||
| 29 | 15:10 | S 10 | 10.00 | Fair | CLR | 100.6 | 61.7 | 28% | 102 | 29.98 | 0.0 | ||||||
| 29 | 14:50 | S 10 G 17 | 10.00 | Fair | CLR | 100 | 62.2 | 29% | 102 | 29.99 | 0.0 | ||||||
| 29 | 14:30 | S 10 G 17 | 10.00 | Fair | CLR | 99.3 | 62.4 | 30% | 101 | 30 | 0.0 | ||||||
| 29 | 14:10 | S 10 | 10.00 | Fair | CLR | 99.3 | 64.2 | 32% | 102 | 30 | 0.0 | ||||||
| 29 | 13:50 | SW 12 G 17 | 10.00 | Fair | CLR | 97.7 | 65.3 | 35% | 101 | 30.01 | 0.0 | ||||||
| 29 | 13:30 | S 10 | 10.00 | Fair | CLR | 97.7 | 65.3 | 35% | 101 | 30.02 | 0.0 | ||||||
| 29 | 13:10 | SW 14 G 20 | 10.00 | Fair | CLR | 97 | 65.5 | 36% | 100 | 30.03 | 0.0 | ||||||
| Date | Time (cdt) | Wind (mph) | Vis. (mi.) | Weather | Sky Cond. | Air | Dwpt | Max. | Min. | Relative Humidity | Wind Chill (°F) | Heat Index (°F) | altimeter (in) | sea level (mb) | 1 hr | 3 hr | 6 hr |
| 6 hour | |||||||||||||||||
| Temperature (ºF) | Pressure | Precipitation (in) | |||||||||||||||